createdAt,value
2023-03-01T00:01:11.950Z,17.27
2023-03-01T00:03:38.963Z,16.08
2023-03-01T00:06:06.711Z,19.20
2023-03-01T00:08:34.144Z,16.95
2023-03-01T00:11:13.394Z,16.63
2023-03-01T00:13:40.231Z,17.70
2023-03-01T00:16:16.202Z,17.35
2023-03-01T00:18:45.436Z,18.23
2023-03-01T00:21:12.318Z,17.73
2023-03-01T00:23:39.564Z,18.85
2023-03-01T00:26:14.242Z,18.88
2023-03-01T00:28:41.228Z,18.55
2023-03-01T00:31:12.898Z,19.23
2023-03-01T00:33:39.965Z,16.88
2023-03-01T00:36:07.803Z,18.00
2023-03-01T00:38:40.186Z,18.70
2023-03-01T00:41:08.848Z,18.20
2023-03-01T00:43:37.673Z,17.67
2023-03-01T00:46:07.125Z,17.77
2023-03-01T00:48:34.282Z,18.35
2023-03-01T00:51:06.833Z,18.67
2023-03-01T00:53:36.781Z,18.93
2023-03-01T00:56:05.265Z,20.10
2023-03-01T00:58:31.969Z,17.88
2023-03-01T01:00:58.535Z,18.98
2023-03-01T01:03:25.886Z,18.83
2023-03-01T01:05:53.737Z,19.10
2023-03-01T01:08:21.708Z,18.05
2023-03-01T01:10:48.771Z,17.02
2023-03-01T01:13:15.494Z,18.23
2023-03-01T01:15:42.412Z,18.48
2023-03-01T01:18:08.949Z,18.92
2023-03-01T01:20:38.610Z,19.23
2023-03-01T01:23:07.690Z,18.90
2023-03-01T01:25:36.870Z,19.60
2023-03-01T01:28:03.583Z,18.02
2023-03-01T01:30:30.038Z,19.50
2023-03-01T01:32:56.487Z,19.15
2023-03-01T01:35:23.012Z,19.17
2023-03-01T01:37:49.466Z,18.02
2023-03-01T01:40:15.862Z,18.48
2023-03-01T01:42:42.281Z,18.52
2023-03-01T01:45:36.828Z,17.95
2023-03-01T01:48:13.912Z,19.27
2023-03-01T01:50:46.024Z,19.20
2023-03-01T01:53:20.923Z,17.83
2023-03-01T01:55:52.643Z,17.73
2023-03-01T01:58:21.746Z,18.40
2023-03-01T02:00:49.054Z,17.75
2023-03-01T02:03:19.851Z,19.52
2023-03-01T02:05:55.268Z,19.13
2023-03-01T02:08:25.896Z,18.02
2023-03-01T02:10:54.132Z,18.23
2023-03-01T02:13:20.666Z,19.73
2023-03-01T02:15:47.248Z,18.95
2023-03-01T02:18:19.377Z,19.50
2023-03-01T02:20:57.596Z,19.20
2023-03-01T02:23:24.361Z,19.30
2023-03-01T02:26:02.215Z,19.98
2023-03-01T02:28:37.430Z,19.25
2023-03-01T02:31:25.656Z,18.80
2023-03-01T02:33:53.771Z,18.88
2023-03-01T02:36:24.468Z,18.67
2023-03-01T02:38:54.789Z,19.13
2023-03-01T02:41:22.855Z,18.60
2023-03-01T02:43:52.264Z,17.80
2023-03-01T02:46:25.154Z,17.92
2023-03-01T02:48:55.400Z,17.80
2023-03-01T02:51:41.534Z,17.85
2023-03-01T02:54:29.594Z,16.63
2023-03-01T02:56:58.751Z,17.80
2023-03-01T02:59:29.383Z,18.85
2023-03-01T03:01:55.841Z,18.35
2023-03-01T03:04:22.330Z,17.48
2023-03-01T03:06:50.914Z,18.25
2023-03-01T03:09:19.164Z,18.23
2023-03-01T03:11:45.687Z,19.15
2023-03-01T03:14:14.879Z,20.27
2023-03-01T03:16:50.168Z,19.60
2023-03-01T03:19:20.357Z,19.98
2023-03-01T03:21:47.128Z,19.77
2023-03-01T03:24:13.668Z,19.48
2023-03-01T03:26:40.071Z,20.75
2023-03-01T03:29:06.482Z,19.92
2023-03-01T03:31:32.886Z,18.77
2023-03-01T03:33:59.995Z,21.27
2023-03-01T03:36:26.785Z,19.02
2023-03-01T03:38:53.444Z,19.98
2023-03-01T03:41:19.881Z,19.05
2023-03-01T03:43:46.390Z,19.25
2023-03-01T03:46:13.707Z,19.38
2023-03-01T03:48:43.376Z,19.85
2023-03-01T03:51:14.711Z,19.73
2023-03-01T03:53:41.479Z,19.08
2023-03-01T03:56:08.244Z,20.92
2023-03-01T03:58:34.961Z,19.05
2023-03-01T04:01:01.891Z,19.52
2023-03-01T04:03:30.051Z,19.52
2023-03-01T04:05:59.292Z,18.65
2023-03-01T04:08:26.901Z,18.40
2023-03-01T04:10:57.958Z,17.92
2023-03-01T04:13:26.326Z,18.77
2023-03-01T04:15:54.642Z,18.10
2023-03-01T04:18:23.941Z,18.00
2023-03-01T04:20:53.271Z,18.80
2023-03-01T04:23:21.638Z,17.20
2023-03-01T04:25:55.921Z,18.48
2023-03-01T04:28:28.160Z,19.48
2023-03-01T04:30:56.455Z,18.92
2023-03-01T04:33:24.412Z,19.40
2023-03-01T04:35:51.207Z,19.30
2023-03-01T04:38:22.299Z,20.73
2023-03-01T04:40:49.219Z,19.77
2023-03-01T04:43:16.153Z,19.33
2023-03-01T04:45:43.192Z,18.52
2023-03-01T04:48:11.543Z,18.95
2023-03-01T04:50:39.214Z,18.13
2023-03-01T04:53:05.597Z,19.10
2023-03-01T04:55:34.766Z,18.88
2023-03-01T04:58:01.190Z,19.80
2023-03-01T05:00:27.659Z,18.40
2023-03-01T05:02:58.008Z,17.58
2023-03-01T05:05:34.624Z,18.58
2023-03-01T05:08:05.184Z,18.02
2023-03-01T05:10:34.501Z,17.58
2023-03-01T05:13:01.013Z,17.17
2023-03-01T05:15:28.949Z,19.65
2023-03-01T05:17:59.641Z,19.05
2023-03-01T05:20:30.658Z,18.80
2023-03-01T05:22:59.803Z,19.23
2023-03-01T05:25:27.031Z,19.35
2023-03-01T05:27:53.459Z,19.73
2023-03-01T05:30:21.959Z,18.60
2023-03-01T05:32:50.642Z,19.42
2023-03-01T05:35:19.160Z,19.85
2023-03-01T05:37:48.308Z,18.75
2023-03-01T05:40:17.918Z,19.75
2023-03-01T05:42:50.306Z,20.08
2023-03-01T05:45:18.257Z,20.17
2023-03-01T05:47:46.993Z,19.13
2023-03-01T05:50:20.576Z,20.08
2023-03-01T05:52:52.585Z,18.80
2023-03-01T05:55:21.429Z,19.30
2023-03-01T05:57:49.044Z,21.08
2023-03-01T06:00:17.158Z,20.52
2023-03-01T06:02:43.700Z,20.23
2023-03-01T06:05:12.699Z,22.02
2023-03-01T06:07:40.087Z,20.52
2023-03-01T06:10:09.158Z,20.90
2023-03-01T06:12:39.703Z,21.40
2023-03-01T06:15:07.786Z,21.27
2023-03-01T06:17:38.384Z,20.42
2023-03-01T06:20:20.327Z,19.23
2023-03-01T06:22:50.511Z,22.70
2023-03-01T06:25:19.796Z,20.00
2023-03-01T06:27:46.789Z,19.95
2023-03-01T06:30:16.290Z,20.95
2023-03-01T06:32:45.615Z,20.00
2023-03-01T06:35:14.240Z,19.52
2023-03-01T06:37:42.045Z,21.75
2023-03-01T06:40:12.660Z,19.52
2023-03-01T06:42:42.204Z,19.02
2023-03-01T06:45:09.700Z,18.92
2023-03-01T06:47:36.234Z,20.02
2023-03-01T06:50:03.614Z,20.20
2023-03-01T06:52:30.578Z,20.17
2023-03-01T06:54:57.014Z,22.08
2023-03-01T06:57:23.468Z,21.58
2023-03-01T06:59:50.086Z,22.33
2023-03-01T07:02:16.674Z,21.98
2023-03-01T07:04:43.648Z,22.10
2023-03-01T07:07:11.272Z,21.90
2023-03-01T07:09:39.307Z,21.02
2023-03-01T07:12:06.190Z,20.55
2023-03-01T07:14:32.643Z,20.58
2023-03-01T07:16:59.109Z,21.20
2023-03-01T07:19:25.583Z,19.05
2023-03-01T07:21:52.059Z,19.63
2023-03-01T07:24:21.503Z,19.75
2023-03-01T07:26:52.149Z,20.08
2023-03-01T07:29:18.882Z,18.80
2023-03-01T07:31:45.909Z,19.30
2023-03-01T07:34:12.563Z,19.10
2023-03-01T07:36:40.465Z,19.88
2023-03-01T07:39:06.900Z,20.60
2023-03-01T07:41:33.954Z,20.23
2023-03-01T07:44:00.353Z,18.65
2023-03-01T07:46:26.858Z,18.83
2023-03-01T07:48:53.624Z,19.38
2023-03-01T07:51:21.285Z,17.95
2023-03-01T07:53:49.224Z,17.23
2023-03-01T07:56:18.526Z,17.80
2023-03-01T07:58:45.507Z,17.88
2023-03-01T08:01:19.272Z,18.13
2023-03-01T08:03:46.569Z,18.50
2023-03-01T08:06:15.154Z,16.45
2023-03-01T08:08:42.059Z,17.83
2023-03-01T08:11:15.641Z,17.52
2023-03-01T08:13:43.260Z,17.08
2023-03-01T08:16:13.881Z,16.25
2023-03-01T08:18:41.106Z,17.33
2023-03-01T08:21:10.362Z,16.33
2023-03-01T08:23:37.434Z,15.48
2023-03-01T08:26:16.456Z,16.90
2023-03-01T08:28:43.385Z,15.07
2023-03-01T08:31:19.752Z,15.02
2023-03-01T08:33:52.443Z,13.80
2023-03-01T08:36:19.427Z,13.82
2023-03-01T08:38:46.870Z,13.73
2023-03-01T08:41:13.679Z,12.38
2023-03-01T08:43:40.105Z,13.05
2023-03-01T08:46:06.958Z,12.77
2023-03-01T08:48:33.525Z,12.82
2023-03-01T08:51:19.991Z,12.63
2023-03-01T08:53:47.040Z,11.95
2023-03-01T08:56:13.838Z,11.68
2023-03-01T08:58:43.195Z,10.93
2023-03-01T09:01:11.440Z,11.88
2023-03-01T09:03:38.675Z,11.88
2023-03-01T09:06:06.982Z,11.70
2023-03-01T09:08:36.457Z,12.00
2023-03-01T09:11:05.229Z,11.80
2023-03-01T09:13:34.808Z,12.82
2023-03-01T09:16:07.143Z,11.73
2023-03-01T09:18:35.133Z,13.02
2023-03-01T09:21:03.587Z,11.48
2023-03-01T09:23:30.012Z,11.80
2023-03-01T09:25:56.527Z,12.48
2023-03-01T09:28:29.652Z,11.65
2023-03-01T09:33:25.529Z,11.75
2023-03-01T09:36:00.430Z,11.95
2023-03-01T09:38:27.314Z,11.70
2023-03-01T09:40:53.998Z,12.18
2023-03-01T09:43:56.445Z,12.20
2023-03-01T09:46:24.876Z,13.18
2023-03-01T09:49:07.337Z,11.32
2023-03-01T09:51:36.210Z,11.50
2023-03-01T09:54:07.227Z,11.38
2023-03-01T09:56:40.658Z,11.25
2023-03-01T09:59:16.139Z,11.45
2023-03-01T10:02:22.645Z,10.45
2023-03-01T10:04:56.381Z,11.48
2023-03-01T10:07:37.332Z,11.30
2023-03-01T10:10:08.948Z,11.27
2023-03-01T10:12:43.365Z,12.60
2023-03-01T10:15:20.462Z,11.00
2023-03-01T10:17:57.380Z,10.43
2023-03-01T10:20:34.824Z,11.57
2023-03-01T10:23:01.965Z,11.30
2023-03-01T10:26:02.782Z,10.98
2023-03-01T10:28:59.485Z,10.98
2023-03-01T10:31:56.041Z,11.10
2023-03-01T10:34:35.762Z,12.68
2023-03-01T10:37:14.751Z,12.48
2023-03-01T10:40:10.947Z,11.32
2023-03-01T10:42:48.775Z,11.80
2023-03-01T10:45:16.898Z,12.85
2023-03-01T10:47:43.646Z,11.40
2023-03-01T10:50:22.550Z,12.93
2023-03-01T10:53:05.981Z,13.20
2023-03-01T10:55:40.885Z,13.02
2023-03-01T10:58:21.780Z,13.45
2023-03-01T11:00:53.706Z,13.32
2023-03-01T11:03:24.472Z,12.15
2023-03-01T11:06:00.952Z,12.68
2023-03-01T11:08:57.683Z,12.40
2023-03-01T11:11:32.702Z,12.50
2023-03-01T11:14:26.455Z,11.48
2023-03-01T11:17:03.276Z,11.80
2023-03-01T11:19:29.848Z,11.90
2023-03-01T11:22:05.434Z,11.60
2023-03-01T11:25:03.537Z,11.93
2023-03-01T11:27:40.693Z,11.82
2023-03-01T11:30:34.683Z,12.38
2023-03-01T11:33:09.978Z,12.25
2023-03-01T11:35:44.086Z,12.50
2023-03-01T11:38:16.606Z,11.82
2023-03-01T11:40:49.393Z,12.63
2023-03-01T11:43:20.307Z,12.13
2023-03-01T11:46:05.471Z,12.57
2023-03-01T11:48:49.918Z,13.80
2023-03-01T11:51:39.224Z,13.07
2023-03-01T11:54:20.823Z,12.98
2023-03-01T11:57:22.567Z,12.45
2023-03-01T12:00:04.645Z,13.38
2023-03-01T12:02:46.411Z,13.27
2023-03-01T12:05:16.570Z,13.52
2023-03-01T12:08:06.654Z,13.00
2023-03-01T12:11:11.357Z,12.82
2023-03-01T12:14:11.959Z,11.10
2023-03-01T12:17:00.342Z,11.93
2023-03-01T12:19:42.062Z,12.50
2023-03-01T12:22:20.915Z,12.68
2023-03-01T12:25:16.405Z,10.80
2023-03-01T12:27:59.360Z,12.88
2023-03-01T12:30:44.715Z,11.98
2023-03-01T12:33:39.019Z,11.60
2023-03-01T12:36:11.611Z,12.27
2023-03-01T12:38:49.811Z,13.10
2023-03-01T12:41:34.618Z,12.65
2023-03-01T12:44:31.762Z,10.98
2023-03-01T12:47:13.658Z,11.77
2023-03-01T12:49:56.906Z,11.07
2023-03-01T12:52:34.465Z,11.60
2023-03-01T12:55:03.703Z,12.02
2023-03-01T12:57:43.182Z,11.50
2023-03-01T13:00:39.139Z,11.45
2023-03-01T13:03:26.072Z,11.55
2023-03-01T13:06:11.933Z,11.45
2023-03-01T13:08:55.214Z,11.88
2023-03-01T13:11:23.722Z,11.15
2023-03-01T13:14:11.200Z,10.98
2023-03-01T13:16:37.536Z,11.93
2023-03-01T13:19:10.922Z,10.63
2023-03-01T13:21:37.335Z,12.07
2023-03-01T13:24:03.960Z,11.52
2023-03-01T13:26:30.911Z,11.32
2023-03-01T13:28:58.483Z,11.82
2023-03-01T13:31:27.653Z,11.43
2023-03-01T13:33:59.390Z,12.10
2023-03-01T13:36:29.182Z,11.77
2023-03-01T13:38:58.928Z,12.63
2023-03-01T13:42:01.291Z,12.63
2023-03-01T13:44:33.399Z,11.85
2023-03-01T13:47:15.603Z,11.90
2023-03-01T13:50:02.003Z,12.00
2023-03-01T13:52:32.973Z,11.73
2023-03-01T13:55:00.429Z,12.77
2023-03-01T13:57:33.466Z,12.25
2023-03-01T13:59:59.985Z,13.38
2023-03-01T14:02:26.505Z,12.43
2023-03-01T14:05:00.211Z,12.43
2023-03-01T14:07:31.679Z,13.18
2023-03-01T14:10:04.672Z,12.45
2023-03-01T14:12:52.420Z,12.60
2023-03-01T14:15:40.442Z,11.82
2023-03-01T14:18:15.838Z,11.93
2023-03-01T14:20:52.493Z,11.80
2023-03-01T14:23:23.274Z,12.00
2023-03-01T14:25:54.738Z,11.23
2023-03-01T14:28:23.170Z,11.65
2023-03-01T14:30:52.671Z,11.98
2023-03-01T14:33:29.949Z,10.68
2023-03-01T14:36:05.721Z,10.80
2023-03-01T14:38:41.618Z,11.68
2023-03-01T14:41:16.650Z,11.05
2023-03-01T14:43:47.908Z,10.82
2023-03-01T14:46:26.658Z,11.05
2023-03-01T14:48:57.352Z,11.35
2023-03-01T14:51:24.046Z,14.27
2023-03-01T14:53:51.720Z,10.70
2023-03-01T14:56:18.724Z,10.20
2023-03-01T14:58:45.168Z,10.95
2023-03-01T15:01:16.147Z,12.13
2023-03-01T15:03:44.963Z,10.52
2023-03-01T15:06:15.685Z,11.23
2023-03-01T15:08:45.760Z,10.77
2023-03-01T15:11:15.026Z,10.98
2023-03-01T15:13:41.884Z,10.90
2023-03-01T15:16:17.792Z,11.15
2023-03-01T15:18:53.679Z,10.90
2023-03-01T15:21:23.990Z,11.10
2023-03-01T15:23:54.497Z,11.35
2023-03-01T15:26:32.274Z,10.40
2023-03-01T15:29:00.969Z,9.65
2023-03-01T15:31:39.603Z,10.48
2023-03-01T15:34:24.858Z,10.77
2023-03-01T15:36:54.134Z,9.95
2023-03-01T15:39:53.441Z,10.88
2023-03-01T15:42:28.805Z,11.60
2023-03-01T15:45:21.883Z,10.60
2023-03-01T15:47:51.814Z,13.30
2023-03-01T15:50:27.601Z,11.80
2023-03-01T15:52:55.365Z,11.63
2023-03-01T15:55:30.756Z,11.07
2023-03-01T15:58:03.732Z,10.55
2023-03-01T16:00:30.293Z,10.05
2023-03-01T16:02:57.533Z,10.55
2023-03-01T16:05:27.839Z,10.85
2023-03-01T16:07:55.069Z,10.43
2023-03-01T16:10:22.030Z,10.98
2023-03-01T16:12:48.957Z,11.02
2023-03-01T16:15:21.463Z,10.65
2023-03-01T16:17:48.123Z,11.50
2023-03-01T16:20:27.309Z,11.25
2023-03-01T16:22:54.733Z,10.50
2023-03-01T16:25:22.215Z,11.07
2023-03-01T16:27:51.959Z,11.40
2023-03-01T16:30:23.621Z,10.38
2023-03-01T16:32:51.058Z,10.85
2023-03-01T16:35:21.723Z,10.50
2023-03-01T16:37:49.027Z,10.43
2023-03-01T16:40:25.189Z,10.98
2023-03-01T16:42:52.069Z,10.43
2023-03-01T16:45:26.498Z,10.40
2023-03-01T16:47:56.019Z,10.27
2023-03-01T16:50:23.873Z,9.63
2023-03-01T16:52:50.289Z,10.32
2023-03-01T16:55:17.949Z,10.07
2023-03-01T16:57:44.401Z,10.93
2023-03-01T17:00:13.883Z,10.50
2023-03-01T17:02:42.269Z,10.23
2023-03-01T17:05:10.892Z,11.13
2023-03-01T17:07:37.704Z,10.35
2023-03-01T17:10:09.416Z,10.48
2023-03-01T17:12:36.495Z,10.93
2023-03-01T17:15:04.379Z,10.57
2023-03-01T17:17:31.465Z,10.73
2023-03-01T17:19:58.409Z,11.40
2023-03-01T17:22:25.005Z,11.35
2023-03-01T17:24:51.456Z,11.35
2023-03-01T17:27:18.514Z,10.90
2023-03-01T17:29:45.057Z,11.23
2023-03-01T17:32:11.621Z,13.20
2023-03-01T17:34:38.176Z,12.45
2023-03-01T17:37:04.620Z,11.75
2023-03-01T17:39:36.052Z,12.73
2023-03-01T17:42:05.329Z,12.35
2023-03-01T17:44:34.541Z,11.00
2023-03-01T17:47:02.839Z,12.45
2023-03-01T17:49:29.611Z,12.32
2023-03-01T17:51:57.488Z,11.82
2023-03-01T17:54:23.978Z,12.02
2023-03-01T17:56:51.064Z,12.60
2023-03-01T17:59:20.256Z,13.75
2023-03-01T18:01:47.087Z,13.48
2023-03-01T18:04:13.807Z,13.00
2023-03-01T18:06:43.176Z,12.05
2023-03-01T18:09:09.748Z,11.65
2023-03-01T18:11:36.926Z,11.27
2023-03-01T18:14:04.571Z,12.25
2023-03-01T18:16:32.405Z,13.23
2023-03-01T18:19:00.683Z,11.73
2023-03-01T18:21:28.459Z,13.73
2023-03-01T18:23:54.980Z,12.75
2023-03-01T18:26:22.227Z,13.95
2023-03-01T18:28:51.717Z,12.88
2023-03-01T18:31:21.789Z,14.38
2023-03-01T18:33:49.370Z,15.13
2023-03-01T18:36:35.752Z,14.95
2023-03-01T18:39:05.621Z,17.20
2023-03-01T18:41:33.060Z,15.57
2023-03-01T18:43:59.706Z,14.50
2023-03-01T18:46:26.521Z,14.98
2023-03-01T18:48:54.086Z,15.05
2023-03-01T18:51:23.565Z,14.38
2023-03-01T18:53:49.993Z,14.40
2023-03-01T18:56:16.434Z,14.60
2023-03-01T18:58:43.400Z,14.88
2023-03-01T19:01:16.018Z,15.55
2023-03-01T19:03:42.784Z,14.95
2023-03-01T19:06:09.960Z,14.32
2023-03-01T19:08:37.051Z,14.02
2023-03-01T19:11:05.643Z,14.00
2023-03-01T19:13:34.008Z,15.32
2023-03-01T19:16:12.416Z,16.13
2023-03-01T19:18:41.199Z,17.77
2023-03-01T19:21:09.867Z,16.55
2023-03-01T19:23:36.833Z,15.52
2023-03-01T19:26:06.567Z,15.30
2023-03-01T19:28:34.280Z,14.20
2023-03-01T19:31:02.969Z,15.50
2023-03-01T19:33:31.027Z,15.95
2023-03-01T19:35:58.281Z,13.95
2023-03-01T19:38:25.948Z,16.02
2023-03-01T19:40:52.709Z,14.93
2023-03-01T19:43:19.411Z,14.98
2023-03-01T19:45:50.106Z,14.82
2023-03-01T19:48:16.561Z,15.77
2023-03-01T19:50:46.005Z,16.92
2023-03-01T19:53:14.590Z,16.45
2023-03-01T19:55:41.547Z,15.52
2023-03-01T19:58:10.468Z,15.75
2023-03-01T20:00:38.977Z,16.08
2023-03-01T20:03:05.468Z,16.35
2023-03-01T20:05:36.296Z,14.32
2023-03-01T20:08:03.789Z,15.50
2023-03-01T20:10:32.336Z,14.77
2023-03-01T20:12:59.294Z,14.60
2023-03-01T20:15:25.958Z,14.00
2023-03-01T20:17:52.696Z,13.32
2023-03-01T20:20:19.393Z,13.98
2023-03-01T20:22:45.813Z,13.77
2023-03-01T20:25:12.370Z,14.63
2023-03-01T20:27:38.945Z,12.63
2023-03-01T20:30:06.272Z,13.35
2023-03-01T20:32:33.422Z,14.00
2023-03-01T20:35:00.084Z,13.93
2023-03-01T20:37:26.536Z,13.35
2023-03-01T20:39:54.601Z,13.48
2023-03-01T20:42:21.011Z,12.63
2023-03-01T20:44:47.457Z,11.93
2023-03-01T20:47:14.617Z,12.85
2023-03-01T20:49:41.219Z,12.75
2023-03-01T20:52:07.811Z,11.90
2023-03-01T20:54:34.363Z,11.73
2023-03-01T20:57:02.240Z,12.90
2023-03-01T20:59:28.840Z,12.20
2023-03-01T21:01:55.716Z,14.15
2023-03-01T21:04:22.468Z,12.68
2023-03-01T21:06:48.956Z,11.05
2023-03-01T21:09:15.510Z,10.85
2023-03-01T21:11:41.981Z,11.63
2023-03-01T21:14:09.399Z,10.63
2023-03-01T21:16:36.459Z,11.35
2023-03-01T21:19:06.167Z,11.20
2023-03-01T21:21:32.933Z,10.55
2023-03-01T21:23:59.476Z,11.23
2023-03-01T21:26:27.483Z,10.98
2023-03-01T21:29:00.292Z,10.02
2023-03-01T21:31:34.023Z,9.85
2023-03-01T21:34:04.390Z,10.50
2023-03-01T21:36:31.845Z,10.27
2023-03-01T21:39:01.600Z,10.88
2023-03-01T21:41:31.425Z,10.82
2023-03-01T21:44:00.664Z,11.02
2023-03-01T21:46:31.196Z,10.70
2023-03-01T21:48:58.726Z,10.48
2023-03-01T21:51:27.029Z,9.52
2023-03-01T21:53:56.096Z,10.32
2023-03-01T21:56:25.773Z,10.50
2023-03-01T21:58:52.993Z,10.05
2023-03-01T22:01:25.465Z,10.00
2023-03-01T22:03:51.881Z,10.52
2023-03-01T22:06:28.932Z,11.40
2023-03-01T22:09:01.091Z,9.98
2023-03-01T22:11:28.451Z,11.07
2023-03-01T22:13:56.365Z,9.63
2023-03-01T22:16:26.113Z,10.45
2023-03-01T22:18:53.213Z,11.70
2023-03-01T22:21:20.619Z,9.82
2023-03-01T22:23:47.156Z,10.07
2023-03-01T22:26:30.712Z,10.18
2023-03-01T22:31:25.810Z,10.48
2023-03-01T22:33:53.232Z,11.27
2023-03-01T22:36:22.661Z,10.13
2023-03-01T22:38:49.194Z,10.88
2023-03-01T22:41:15.838Z,12.43
2023-03-01T22:43:42.398Z,9.85
2023-03-01T22:46:11.351Z,9.93
2023-03-01T22:48:37.828Z,10.07
2023-03-01T22:51:04.508Z,11.85
2023-03-01T22:53:30.942Z,9.77
2023-03-01T22:55:57.339Z,10.27
2023-03-01T22:58:23.755Z,10.55
2023-03-01T23:00:51.060Z,10.32
2023-03-01T23:03:17.933Z,8.93
2023-03-01T23:05:44.439Z,9.52
2023-03-01T23:08:10.818Z,9.43
2023-03-01T23:10:40.775Z,9.95
2023-03-01T23:13:07.242Z,9.60
2023-03-01T23:15:33.846Z,9.75
2023-03-01T23:18:00.321Z,10.43
2023-03-01T23:20:26.734Z,10.02
2023-03-01T23:22:53.110Z,10.55
2023-03-01T23:25:19.526Z,10.90
2023-03-01T23:27:45.925Z,12.98
2023-03-01T23:30:12.539Z,13.13
2023-03-01T23:32:40.466Z,13.32
2023-03-01T23:35:09.732Z,12.82
2023-03-01T23:37:37.310Z,13.07
2023-03-01T23:40:06.323Z,12.50
2023-03-01T23:42:34.565Z,11.60
2023-03-01T23:45:01.032Z,12.95
2023-03-01T23:47:27.457Z,12.02
2023-03-01T23:49:53.894Z,10.68
2023-03-01T23:52:20.289Z,11.88
2023-03-01T23:54:46.851Z,11.90
2023-03-01T23:57:13.248Z,11.68
2023-03-01T23:59:40.959Z,11.88
